Ames, Texas
Current Conditions -  °F | °C
As of 7:15 PM on Saturday 22 Nov 2014 (Local Time) from KBMT Reporting Station
Moderate Rain Moderate Rain  
Wind Chill: 64°   Ceiling: 700
Heat Index: 64°   Visibility: 7mi
Dew Point: 64°   Wind: 12mph
Humidity: 97%   Direction: 110°ESE
Pressure: 29.86"   Gusts: NA
Location:  30.0821°N, 94.7401°W
Report Text: KBMT 230115Z AUTO 11010KT 7SM RA OVC007 18/18 A2986 RMK AO2 LTG DSNT SW T01800175
Loading
Personal Weather Stations






























Interactive Weather Map New forecast layout! Learn more

10-Day Weather Forecast

Advertisements
Track Severe Weather on mobile